sensor_id;sensor_type;location;lat;lon;timestamp;temperature;humidity
3086;DHT22;52812;48.960;9.108;2023-04-24T00:00:14;11.10;99.90
3086;DHT22;52812;48.960;9.108;2023-04-24T00:02:41;11.10;99.90
3086;DHT22;52812;48.960;9.108;2023-04-24T00:05:15;11.20;99.90
3086;DHT22;52812;48.960;9.108;2023-04-24T00:07:42;11.20;99.90
3086;DHT22;52812;48.960;9.108;2023-04-24T00:10:08;11.20;99.90
3086;DHT22;52812;48.960;9.108;2023-04-24T00:12:34;11.30;99.90
3086;DHT22;52812;48.960;9.108;2023-04-24T00:15:00;11.30;99.90
3086;DHT22;52812;48.960;9.108;2023-04-24T00:17:26;11.30;99.90
3086;DHT22;52812;48.960;9.108;2023-04-24T00:19:51;11.30;99.90
3086;DHT22;52812;48.960;9.108;2023-04-24T00:22:23;11.20;99.90
3086;DHT22;52812;48.960;9.108;2023-04-24T00:24:49;11.20;99.90
3086;DHT22;52812;48.960;9.108;2023-04-24T00:27:15;11.30;99.90
3086;DHT22;52812;48.960;9.108;2023-04-24T00:29:40;11.20;99.90
3086;DHT22;52812;48.960;9.108;2023-04-24T00:32:06;11.30;99.90
3086;DHT22;52812;48.960;9.108;2023-04-24T00:34:31;11.30;99.90
3086;DHT22;52812;48.960;9.108;2023-04-24T00:36:58;11.30;99.90
3086;DHT22;52812;48.960;9.108;2023-04-24T00:39:23;11.30;99.90
3086;DHT22;52812;48.960;9.108;2023-04-24T00:41:49;11.30;99.90
3086;DHT22;52812;48.960;9.108;2023-04-24T00:44:16;11.30;99.90
3086;DHT22;52812;48.960;9.108;2023-04-24T00:46:42;11.30;99.90
3086;DHT22;52812;48.960;9.108;2023-04-24T00:49:08;11.40;99.90
3086;DHT22;52812;48.960;9.108;2023-04-24T00:51:34;11.40;99.90
3086;DHT22;52812;48.960;9.108;2023-04-24T00:54:00;11.40;99.90
3086;DHT22;52812;48.960;9.108;2023-04-24T00:56:26;11.40;99.90
3086;DHT22;52812;48.960;9.108;2023-04-24T00:58:52;11.40;99.90
3086;DHT22;52812;48.960;9.108;2023-04-24T01:01:22;11.40;99.90
3086;DHT22;52812;48.960;9.108;2023-04-24T01:03:51;11.40;99.90
3086;DHT22;52812;48.960;9.108;2023-04-24T01:06:17;11.40;99.90
3086;DHT22;52812;48.960;9.108;2023-04-24T01:08:43;11.40;99.90
3086;DHT22;52812;48.960;9.108;2023-04-24T01:11:10;11.50;99.90
3086;DHT22;52812;48.960;9.108;2023-04-24T01:13:36;11.50;99.90
3086;DHT22;52812;48.960;9.108;2023-04-24T01:16:02;11.50;99.90
3086;DHT22;52812;48.960;9.108;2023-04-24T01:18:28;11.50;99.90
3086;DHT22;52812;48.960;9.108;2023-04-24T01:20:57;11.50;99.90
3086;DHT22;52812;48.960;9.108;2023-04-24T01:23:23;11.50;99.90
3086;DHT22;52812;48.960;9.108;2023-04-24T01:25:50;11.50;99.90
3086;DHT22;52812;48.960;9.108;2023-04-24T01:28:16;11.50;99.90
3086;DHT22;52812;48.960;9.108;2023-04-24T01:30:42;11.50;99.90
3086;DHT22;52812;48.960;9.108;2023-04-24T01:33:08;11.40;99.90
3086;DHT22;52812;48.960;9.108;2023-04-24T01:35:34;11.40;99.90
3086;DHT22;52812;48.960;9.108;2023-04-24T01:38:01;11.30;99.90
3086;DHT22;52812;48.960;9.108;2023-04-24T01:40:27;11.30;99.90
3086;DHT22;52812;48.960;9.108;2023-04-24T01:42:53;11.30;99.90
3086;DHT22;52812;48.960;9.108;2023-04-24T01:45:18;11.20;99.90
3086;DHT22;52812;48.960;9.108;2023-04-24T01:47:45;11.20;99.90
3086;DHT22;52812;48.960;9.108;2023-04-24T01:50:11;11.20;99.90
3086;DHT22;52812;48.960;9.108;2023-04-24T01:52:37;11.10;99.90
3086;DHT22;52812;48.960;9.108;2023-04-24T01:55:04;11.10;99.90
3086;DHT22;52812;48.960;9.108;2023-04-24T01:57:31;11.10;99.90
3086;DHT22;52812;48.960;9.108;2023-04-24T01:59:57;11.00;99.90
3086;DHT22;52812;48.960;9.108;2023-04-24T02:02:23;11.00;99.90
3086;DHT22;52812;48.960;9.108;2023-04-24T02:04:50;11.00;99.90
3086;DHT22;52812;48.960;9.108;2023-04-24T02:07:15;10.90;99.90
3086;DHT22;52812;48.960;9.108;2023-04-24T02:09:44;10.90;99.90
3086;DHT22;52812;48.960;9.108;2023-04-24T02:12:10;10.90;99.90
3086;DHT22;52812;48.960;9.108;2023-04-24T02:14:35;10.90;99.90
3086;DHT22;52812;48.960;9.108;2023-04-24T02:17:01;10.90;99.90
3086;DHT22;52812;48.960;9.108;2023-04-24T02:19:27;11.00;99.90
3086;DHT22;52812;48.960;9.108;2023-04-24T02:21:52;11.00;99.90
3086;DHT22;52812;48.960;9.108;2023-04-24T02:24:18;11.10;99.90
3086;DHT22;52812;48.960;9.108;2023-04-24T02:26:44;11.10;99.90
3086;DHT22;52812;48.960;9.108;2023-04-24T02:29:09;11.10;99.90
3086;DHT22;52812;48.960;9.108;2023-04-24T02:31:35;11.20;99.90
3086;DHT22;52812;48.960;9.108;2023-04-24T02:34:00;11.10;99.90
3086;DHT22;52812;48.960;9.108;2023-04-24T02:36:26;11.10;99.90
3086;DHT22;52812;48.960;9.108;2023-04-24T02:38:52;11.10;99.90
3086;DHT22;52812;48.960;9.108;2023-04-24T02:41:17;11.10;99.90
3086;DHT22;52812;48.960;9.108;2023-04-24T02:43:43;11.10;99.90
3086;DHT22;52812;48.960;9.108;2023-04-24T02:46:09;11.10;99.90
3086;DHT22;52812;48.960;9.108;2023-04-24T02:48:34;11.10;99.90
3086;DHT22;52812;48.960;9.108;2023-04-24T02:51:00;11.10;99.90
3086;DHT22;52812;48.960;9.108;2023-04-24T02:53:25;11.10;99.90
3086;DHT22;52812;48.960;9.108;2023-04-24T02:55:51;11.20;99.90
3086;DHT22;52812;48.960;9.108;2023-04-24T02:58:17;11.20;99.90
3086;DHT22;52812;48.960;9.108;2023-04-24T03:00:45;11.10;99.90
3086;DHT22;52812;48.960;9.108;2023-04-24T03:03:11;11.10;99.90
3086;DHT22;52812;48.960;9.108;2023-04-24T03:05:36;11.00;99.90
3086;DHT22;52812;48.960;9.108;2023-04-24T03:08:02;11.00;99.90
3086;DHT22;52812;48.960;9.108;2023-04-24T03:10:28;10.90;99.90
3086;DHT22;52812;48.960;9.108;2023-04-24T03:12:53;10.90;99.90
3086;DHT22;52812;48.960;9.108;2023-04-24T03:15:20;10.80;99.90
3086;DHT22;52812;48.960;9.108;2023-04-24T03:17:46;10.70;99.90
3086;DHT22;52812;48.960;9.108;2023-04-24T03:20:12;10.70;99.90
3086;DHT22;52812;48.960;9.108;2023-04-24T03:22:37;10.70;99.90
3086;DHT22;52812;48.960;9.108;2023-04-24T03:25:03;10.60;99.90
3086;DHT22;52812;48.960;9.108;2023-04-24T03:27:29;10.60;99.90
3086;DHT22;52812;48.960;9.108;2023-04-24T03:29:56;10.70;99.90
3086;DHT22;52812;48.960;9.108;2023-04-24T03:32:21;10.70;99.90
3086;DHT22;52812;48.960;9.108;2023-04-24T03:34:48;10.70;99.90
3086;DHT22;52812;48.960;9.108;2023-04-24T03:37:14;10.70;99.90
3086;DHT22;52812;48.960;9.108;2023-04-24T03:39:40;10.70;99.90
3086;DHT22;52812;48.960;9.108;2023-04-24T03:42:06;10.70;99.90
3086;DHT22;52812;48.960;9.108;2023-04-24T03:44:31;10.70;99.90
3086;DHT22;52812;48.960;9.108;2023-04-24T03:46:58;10.70;99.90
3086;DHT22;52812;48.960;9.108;2023-04-24T03:49:23;10.70;99.90
3086;DHT22;52812;48.960;9.108;2023-04-24T03:51:49;10.70;99.90
3086;DHT22;52812;48.960;9.108;2023-04-24T03:54:15;10.80;99.90
3086;DHT22;52812;48.960;9.108;2023-04-24T03:56:40;10.80;99.90
3086;DHT22;52812;48.960;9.108;2023-04-24T03:59:06;10.80;99.90
3086;DHT22;52812;48.960;9.108;2023-04-24T04:01:31;10.80;99.90
3086;DHT22;52812;48.960;9.108;2023-04-24T04:03:57;10.70;99.90
3086;DHT22;52812;48.960;9.108;2023-04-24T04:06:23;10.60;99.90
3086;DHT22;52812;48.960;9.108;2023-04-24T04:08:48;10.60;99.90
3086;DHT22;52812;48.960;9.108;2023-04-24T04:11:14;10.50;99.90
3086;DHT22;52812;48.960;9.108;2023-04-24T04:13:40;10.40;99.90
3086;DHT22;52812;48.960;9.108;2023-04-24T04:16:05;10.20;99.90
3086;DHT22;52812;48.960;9.108;2023-04-24T04:18:31;10.10;99.90
3086;DHT22;52812;48.960;9.108;2023-04-24T04:20:57;9.90;99.90
3086;DHT22;52812;48.960;9.108;2023-04-24T04:23:23;9.80;99.90
3086;DHT22;52812;48.960;9.108;2023-04-24T04:25:48;9.70;99.90
3086;DHT22;52812;48.960;9.108;2023-04-24T04:28:15;9.70;99.90
3086;DHT22;52812;48.960;9.108;2023-04-24T04:30:41;9.60;99.90
3086;DHT22;52812;48.960;9.108;2023-04-24T04:33:06;9.60;99.90
3086;DHT22;52812;48.960;9.108;2023-04-24T04:35:33;9.60;99.90
3086;DHT22;52812;48.960;9.108;2023-04-24T04:37:59;9.60;99.90
3086;DHT22;52812;48.960;9.108;2023-04-24T04:40:24;9.60;99.90
3086;DHT22;52812;48.960;9.108;2023-04-24T04:42:50;9.60;99.90
3086;DHT22;52812;48.960;9.108;2023-04-24T04:45:18;9.60;99.90
3086;DHT22;52812;48.960;9.108;2023-04-24T04:47:44;9.60;99.90
3086;DHT22;52812;48.960;9.108;2023-04-24T04:50:10;9.60;99.90
3086;DHT22;52812;48.960;9.108;2023-04-24T04:52:35;9.50;99.90
3086;DHT22;52812;48.960;9.108;2023-04-24T04:55:01;9.60;99.90
3086;DHT22;52812;48.960;9.108;2023-04-24T04:57:27;9.50;99.90
3086;DHT22;52812;48.960;9.108;2023-04-24T04:59:53;9.50;99.90
3086;DHT22;52812;48.960;9.108;2023-04-24T05:02:19;9.50;99.90
3086;DHT22;52812;48.960;9.108;2023-04-24T05:04:44;9.50;99.90
3086;DHT22;52812;48.960;9.108;2023-04-24T05:07:10;9.50;99.90
3086;DHT22;52812;48.960;9.108;2023-04-24T05:09:36;9.50;99.90
3086;DHT22;52812;48.960;9.108;2023-04-24T05:12:02;9.40;99.90
3086;DHT22;52812;48.960;9.108;2023-04-24T05:14:27;9.40;99.90
3086;DHT22;52812;48.960;9.108;2023-04-24T05:16:53;9.40;99.90
3086;DHT22;52812;48.960;9.108;2023-04-24T05:19:18;9.40;99.90
3086;DHT22;52812;48.960;9.108;2023-04-24T05:21:44;9.40;99.90
3086;DHT22;52812;48.960;9.108;2023-04-24T05:24:09;9.40;99.90
3086;DHT22;52812;48.960;9.108;2023-04-24T05:26:35;9.50;99.90
3086;DHT22;52812;48.960;9.108;2023-04-24T05:29:01;9.60;99.90
3086;DHT22;52812;48.960;9.108;2023-04-24T05:31:27;9.60;99.90
3086;DHT22;52812;48.960;9.108;2023-04-24T05:33:53;9.60;99.90
3086;DHT22;52812;48.960;9.108;2023-04-24T05:36:18;9.60;99.90
3086;DHT22;52812;48.960;9.108;2023-04-24T05:38:44;9.60;99.90
3086;DHT22;52812;48.960;9.108;2023-04-24T05:41:09;9.50;99.90
3086;DHT22;52812;48.960;9.108;2023-04-24T05:43:35;9.50;99.90
3086;DHT22;52812;48.960;9.108;2023-04-24T05:46:00;9.50;99.90
3086;DHT22;52812;48.960;9.108;2023-04-24T05:48:26;9.50;99.90
3086;DHT22;52812;48.960;9.108;2023-04-24T05:50:51;9.50;99.90
3086;DHT22;52812;48.960;9.108;2023-04-24T05:53:18;9.80;99.90
3086;DHT22;52812;48.960;9.108;2023-04-24T05:55:44;10.70;99.90
3086;DHT22;52812;48.960;9.108;2023-04-24T05:58:10;11.60;99.90
3086;DHT22;52812;48.960;9.108;2023-04-24T06:00:35;11.90;99.90
3086;DHT22;52812;48.960;9.108;2023-04-24T06:03:01;12.00;99.90
3086;DHT22;52812;48.960;9.108;2023-04-24T06:05:29;11.70;99.90
3086;DHT22;52812;48.960;9.108;2023-04-24T06:07:55;11.50;99.90
3086;DHT22;52812;48.960;9.108;2023-04-24T06:10:21;11.20;99.90
3086;DHT22;52812;48.960;9.108;2023-04-24T06:12:46;11.20;99.90
3086;DHT22;52812;48.960;9.108;2023-04-24T06:15:12;11.60;99.90
3086;DHT22;52812;48.960;9.108;2023-04-24T06:17:38;12.30;99.90
3086;DHT22;52812;48.960;9.108;2023-04-24T06:20:04;13.40;99.90
3086;DHT22;52812;48.960;9.108;2023-04-24T06:22:31;13.90;99.90
3086;DHT22;52812;48.960;9.108;2023-04-24T06:24:57;14.40;99.90
3086;DHT22;52812;48.960;9.108;2023-04-24T06:27:22;15.00;99.90
3086;DHT22;52812;48.960;9.108;2023-04-24T06:29:48;15.50;99.90
3086;DHT22;52812;48.960;9.108;2023-04-24T06:32:23;15.00;99.90
3086;DHT22;52812;48.960;9.108;2023-04-24T06:34:49;14.20;99.90
3086;DHT22;52812;48.960;9.108;2023-04-24T06:37:14;13.80;99.90
3086;DHT22;52812;48.960;9.108;2023-04-24T06:39:41;14.10;99.90
3086;DHT22;52812;48.960;9.108;2023-04-24T06:42:07;14.80;99.90
3086;DHT22;52812;48.960;9.108;2023-04-24T06:44:35;15.10;99.90
3086;DHT22;52812;48.960;9.108;2023-04-24T06:47:09;15.00;99.90
3086;DHT22;52812;48.960;9.108;2023-04-24T06:49:36;15.10;99.90
3086;DHT22;52812;48.960;9.108;2023-04-24T06:52:02;15.60;99.90
3086;DHT22;52812;48.960;9.108;2023-04-24T06:54:28;16.20;99.90
3086;DHT22;52812;48.960;9.108;2023-04-24T06:56:54;16.50;99.90
3086;DHT22;52812;48.960;9.108;2023-04-24T06:59:20;16.50;99.90
3086;DHT22;52812;48.960;9.108;2023-04-24T07:01:46;16.70;99.90
3086;DHT22;52812;48.960;9.108;2023-04-24T07:04:11;17.10;99.90
3086;DHT22;52812;48.960;9.108;2023-04-24T07:06:38;17.10;99.90
3086;DHT22;52812;48.960;9.108;2023-04-24T07:09:04;17.20;99.90
3086;DHT22;52812;48.960;9.108;2023-04-24T07:11:30;16.80;99.90
3086;DHT22;52812;48.960;9.108;2023-04-24T07:13:58;16.90;99.90
3086;DHT22;52812;48.960;9.108;2023-04-24T07:16:23;16.30;99.90
3086;DHT22;52812;48.960;9.108;2023-04-24T07:18:49;16.60;99.90
3086;DHT22;52812;48.960;9.108;2023-04-24T07:21:14;16.90;99.90
3086;DHT22;52812;48.960;9.108;2023-04-24T07:23:40;16.80;99.90
3086;DHT22;52812;48.960;9.108;2023-04-24T07:26:06;16.10;99.90
3086;DHT22;52812;48.960;9.108;2023-04-24T07:28:32;15.80;99.90
3086;DHT22;52812;48.960;9.108;2023-04-24T07:30:58;15.90;99.90
3086;DHT22;52812;48.960;9.108;2023-04-24T07:33:25;16.10;99.90
3086;DHT22;52812;48.960;9.108;2023-04-24T07:35:51;15.90;99.90
3086;DHT22;52812;48.960;9.108;2023-04-24T07:38:17;15.40;99.90
3086;DHT22;52812;48.960;9.108;2023-04-24T07:40:45;15.10;99.90
3086;DHT22;52812;48.960;9.108;2023-04-24T07:43:11;14.70;99.90
3086;DHT22;52812;48.960;9.108;2023-04-24T07:45:36;14.40;99.90
3086;DHT22;52812;48.960;9.108;2023-04-24T07:48:03;14.50;99.90
3086;DHT22;52812;48.960;9.108;2023-04-24T07:50:28;14.40;99.90
3086;DHT22;52812;48.960;9.108;2023-04-24T07:52:54;13.50;99.90
3086;DHT22;52812;48.960;9.108;2023-04-24T07:55:20;12.90;99.90
3086;DHT22;52812;48.960;9.108;2023-04-24T07:57:45;12.90;99.90
3086;DHT22;52812;48.960;9.108;2023-04-24T08:00:11;12.80;99.90
3086;DHT22;52812;48.960;9.108;2023-04-24T08:02:37;13.20;99.90
3086;DHT22;52812;48.960;9.108;2023-04-24T08:05:03;13.70;99.90
3086;DHT22;52812;48.960;9.108;2023-04-24T08:07:28;14.10;99.90
3086;DHT22;52812;48.960;9.108;2023-04-24T08:09:54;14.10;99.90
3086;DHT22;52812;48.960;9.108;2023-04-24T08:12:20;13.90;99.90
3086;DHT22;52812;48.960;9.108;2023-04-24T08:14:45;13.80;99.90
3086;DHT22;52812;48.960;9.108;2023-04-24T08:17:11;14.10;99.90
3086;DHT22;52812;48.960;9.108;2023-04-24T08:19:37;14.30;99.90
3086;DHT22;52812;48.960;9.108;2023-04-24T08:22:02;14.30;99.90
3086;DHT22;52812;48.960;9.108;2023-04-24T08:24:29;14.20;99.90
3086;DHT22;52812;48.960;9.108;2023-04-24T08:26:55;14.10;99.90
3086;DHT22;52812;48.960;9.108;2023-04-24T08:29:22;14.20;99.90
3086;DHT22;52812;48.960;9.108;2023-04-24T08:31:47;14.30;99.90
3086;DHT22;52812;48.960;9.108;2023-04-24T08:34:13;14.10;99.90
3086;DHT22;52812;48.960;9.108;2023-04-24T08:36:38;14.30;99.90
3086;DHT22;52812;48.960;9.108;2023-04-24T08:39:06;14.50;99.90
3086;DHT22;52812;48.960;9.108;2023-04-24T08:41:33;13.80;99.90
3086;DHT22;52812;48.960;9.108;2023-04-24T08:44:01;14.00;99.90
3086;DHT22;52812;48.960;9.108;2023-04-24T08:46:27;13.80;99.90
3086;DHT22;52812;48.960;9.108;2023-04-24T08:48:52;13.50;99.90
3086;DHT22;52812;48.960;9.108;2023-04-24T08:51:19;13.50;99.90
3086;DHT22;52812;48.960;9.108;2023-04-24T08:53:46;13.50;99.90
3086;DHT22;52812;48.960;9.108;2023-04-24T08:56:12;13.40;99.90
3086;DHT22;52812;48.960;9.108;2023-04-24T08:58:38;13.20;99.90
3086;DHT22;52812;48.960;9.108;2023-04-24T09:01:04;13.20;99.90
3086;DHT22;52812;48.960;9.108;2023-04-24T09:03:31;13.30;99.90
3086;DHT22;52812;48.960;9.108;2023-04-24T09:05:58;12.90;99.90
3086;DHT22;52812;48.960;9.108;2023-04-24T09:08:26;12.80;99.90
3086;DHT22;52812;48.960;9.108;2023-04-24T09:10:52;12.70;99.90
3086;DHT22;52812;48.960;9.108;2023-04-24T09:13:20;12.70;99.90
3086;DHT22;52812;48.960;9.108;2023-04-24T09:15:45;12.60;99.90
3086;DHT22;52812;48.960;9.108;2023-04-24T09:18:11;12.60;99.90
3086;DHT22;52812;48.960;9.108;2023-04-24T09:20:57;12.70;99.90
3086;DHT22;52812;48.960;9.108;2023-04-24T09:23:23;13.20;99.90
3086;DHT22;52812;48.960;9.108;2023-04-24T09:25:54;13.80;99.90
3086;DHT22;52812;48.960;9.108;2023-04-24T09:28:32;14.40;99.90
3086;DHT22;52812;48.960;9.108;2023-04-24T09:31:06;15.00;99.90
3086;DHT22;52812;48.960;9.108;2023-04-24T09:33:32;14.90;99.90
3086;DHT22;52812;48.960;9.108;2023-04-24T09:35:58;13.80;99.90
3086;DHT22;52812;48.960;9.108;2023-04-24T09:38:37;13.50;99.90
3086;DHT22;52812;48.960;9.108;2023-04-24T09:41:05;13.50;99.90
3086;DHT22;52812;48.960;9.108;2023-04-24T09:43:31;13.50;99.90
3086;DHT22;52812;48.960;9.108;2023-04-24T09:45:58;13.30;99.90
3086;DHT22;52812;48.960;9.108;2023-04-24T09:48:35;13.00;99.90
3086;DHT22;52812;48.960;9.108;2023-04-24T09:51:02;13.10;99.90
3086;DHT22;52812;48.960;9.108;2023-04-24T09:53:30;13.20;99.90
3086;DHT22;52812;48.960;9.108;2023-04-24T09:55:56;13.10;99.90
3086;DHT22;52812;48.960;9.108;2023-04-24T09:58:29;13.20;99.90
3086;DHT22;52812;48.960;9.108;2023-04-24T10:00:56;13.20;99.90
3086;DHT22;52812;48.960;9.108;2023-04-24T10:03:25;13.60;99.90
3086;DHT22;52812;48.960;9.108;2023-04-24T10:05:52;14.00;99.90
3086;DHT22;52812;48.960;9.108;2023-04-24T10:08:19;14.40;99.90
3086;DHT22;52812;48.960;9.108;2023-04-24T10:10:46;14.20;99.90
3086;DHT22;52812;48.960;9.108;2023-04-24T10:13:13;13.80;99.90
3086;DHT22;52812;48.960;9.108;2023-04-24T10:15:41;13.40;99.90
3086;DHT22;52812;48.960;9.108;2023-04-24T10:18:08;13.00;99.90
3086;DHT22;52812;48.960;9.108;2023-04-24T10:20:36;12.90;99.90
3086;DHT22;52812;48.960;9.108;2023-04-24T10:23:02;12.90;99.90
3086;DHT22;52812;48.960;9.108;2023-04-24T10:25:30;13.00;99.90
3086;DHT22;52812;48.960;9.108;2023-04-24T10:27:57;13.20;99.90
3086;DHT22;52812;48.960;9.108;2023-04-24T10:30:29;13.40;99.90
3086;DHT22;52812;48.960;9.108;2023-04-24T10:32:55;13.20;99.90
3086;DHT22;52812;48.960;9.108;2023-04-24T10:35:22;12.90;99.90
3086;DHT22;52812;48.960;9.108;2023-04-24T10:37:54;12.60;99.90
3086;DHT22;52812;48.960;9.108;2023-04-24T10:40:35;12.40;99.90
3086;DHT22;52812;48.960;9.108;2023-04-24T10:43:05;12.50;99.90
3086;DHT22;52812;48.960;9.108;2023-04-24T10:45:33;12.30;99.90
3086;DHT22;52812;48.960;9.108;2023-04-24T10:48:07;12.40;99.90
3086;DHT22;52812;48.960;9.108;2023-04-24T10:50:53;12.10;99.90
3086;DHT22;52812;48.960;9.108;2023-04-24T10:53:21;12.30;99.90
3086;DHT22;52812;48.960;9.108;2023-04-24T10:55:51;12.80;99.90
3086;DHT22;52812;48.960;9.108;2023-04-24T10:58:25;13.10;99.90
3086;DHT22;52812;48.960;9.108;2023-04-24T11:01:00;13.50;99.90
3086;DHT22;52812;48.960;9.108;2023-04-24T11:03:31;13.70;99.90
3086;DHT22;52812;48.960;9.108;2023-04-24T11:06:08;13.50;99.90
3086;DHT22;52812;48.960;9.108;2023-04-24T11:08:45;13.30;99.90
3086;DHT22;52812;48.960;9.108;2023-04-24T11:11:17;13.30;99.90
3086;DHT22;52812;48.960;9.108;2023-04-24T11:16:58;13.60;99.90
3086;DHT22;52812;48.960;9.108;2023-04-24T11:19:21;14.00;99.90
3086;DHT22;52812;48.960;9.108;2023-04-24T11:22:01;14.40;99.90
3086;DHT22;52812;48.960;9.108;2023-04-24T11:24:50;14.50;99.90
3086;DHT22;52812;48.960;9.108;2023-04-24T11:27:20;14.60;99.90
3086;DHT22;52812;48.960;9.108;2023-04-24T11:32:34;14.10;99.90
3086;DHT22;52812;48.960;9.108;2023-04-24T11:37:41;14.10;99.90
3086;DHT22;52812;48.960;9.108;2023-04-24T11:40:09;14.10;99.90
3086;DHT22;52812;48.960;9.108;2023-04-24T11:42:45;14.10;99.90
3086;DHT22;52812;48.960;9.108;2023-04-24T11:45:16;13.90;99.90
3086;DHT22;52812;48.960;9.108;2023-04-24T11:47:43;13.90;99.90
3086;DHT22;52812;48.960;9.108;2023-04-24T11:50:12;13.80;99.90
3086;DHT22;52812;48.960;9.108;2023-04-24T11:52:39;14.00;99.90
3086;DHT22;52812;48.960;9.108;2023-04-24T11:55:24;14.20;99.90
3086;DHT22;52812;48.960;9.108;2023-04-24T11:57:54;14.20;99.90
3086;DHT22;52812;48.960;9.108;2023-04-24T12:00:26;14.10;99.90
3086;DHT22;52812;48.960;9.108;2023-04-24T12:03:07;13.90;99.90
3086;DHT22;52812;48.960;9.108;2023-04-24T12:05:33;13.90;99.90
3086;DHT22;52812;48.960;9.108;2023-04-24T12:08:02;13.70;99.90
3086;DHT22;52812;48.960;9.108;2023-04-24T12:10:29;13.80;99.90
3086;DHT22;52812;48.960;9.108;2023-04-24T12:12:56;13.80;99.90
3086;DHT22;52812;48.960;9.108;2023-04-24T12:15:23;13.70;99.90
3086;DHT22;52812;48.960;9.108;2023-04-24T12:17:51;13.80;99.90
3086;DHT22;52812;48.960;9.108;2023-04-24T12:20:19;13.80;99.90
3086;DHT22;52812;48.960;9.108;2023-04-24T12:22:52;13.80;99.90
3086;DHT22;52812;48.960;9.108;2023-04-24T12:25:26;13.60;99.90
3086;DHT22;52812;48.960;9.108;2023-04-24T12:28:09;13.20;99.90
3086;DHT22;52812;48.960;9.108;2023-04-24T12:30:47;12.80;99.90
3086;DHT22;52812;48.960;9.108;2023-04-24T12:33:23;12.40;99.90
3086;DHT22;52812;48.960;9.108;2023-04-24T12:35:51;12.10;99.90
3086;DHT22;52812;48.960;9.108;2023-04-24T12:38:22;12.00;99.90
3086;DHT22;52812;48.960;9.108;2023-04-24T12:41:08;12.00;99.90
3086;DHT22;52812;48.960;9.108;2023-04-24T12:43:34;12.10;99.90
3086;DHT22;52812;48.960;9.108;2023-04-24T12:46:00;12.40;99.90
3086;DHT22;52812;48.960;9.108;2023-04-24T12:48:27;12.40;99.90
3086;DHT22;52812;48.960;9.108;2023-04-24T12:50:53;12.50;99.90
3086;DHT22;52812;48.960;9.108;2023-04-24T12:53:19;12.60;99.90
3086;DHT22;52812;48.960;9.108;2023-04-24T12:55:44;12.70;99.90
3086;DHT22;52812;48.960;9.108;2023-04-24T12:58:12;12.80;99.90
3086;DHT22;52812;48.960;9.108;2023-04-24T13:00:38;12.80;99.90
3086;DHT22;52812;48.960;9.108;2023-04-24T13:03:04;12.80;99.90
3086;DHT22;52812;48.960;9.108;2023-04-24T13:05:30;12.60;99.90
3086;DHT22;52812;48.960;9.108;2023-04-24T13:07:57;12.60;99.90
3086;DHT22;52812;48.960;9.108;2023-04-24T13:10:23;12.50;99.90
3086;DHT22;52812;48.960;9.108;2023-04-24T13:12:48;12.60;99.90
3086;DHT22;52812;48.960;9.108;2023-04-24T13:15:14;12.70;99.90
3086;DHT22;52812;48.960;9.108;2023-04-24T13:17:40;12.90;99.90
3086;DHT22;52812;48.960;9.108;2023-04-24T13:20:06;13.10;99.90
3086;DHT22;52812;48.960;9.108;2023-04-24T13:22:32;13.20;99.90
3086;DHT22;52812;48.960;9.108;2023-04-24T13:24:58;13.20;99.90
3086;DHT22;52812;48.960;9.108;2023-04-24T13:27:23;13.10;99.90
3086;DHT22;52812;48.960;9.108;2023-04-24T13:29:49;12.90;99.90
3086;DHT22;52812;48.960;9.108;2023-04-24T13:32:15;12.80;99.90
3086;DHT22;52812;48.960;9.108;2023-04-24T13:34:40;12.80;99.90
3086;DHT22;52812;48.960;9.108;2023-04-24T13:37:06;12.80;99.90
3086;DHT22;52812;48.960;9.108;2023-04-24T13:39:33;13.10;99.90
3086;DHT22;52812;48.960;9.108;2023-04-24T13:41:59;13.30;99.90
3086;DHT22;52812;48.960;9.108;2023-04-24T13:44:25;13.10;99.90
3086;DHT22;52812;48.960;9.108;2023-04-24T13:46:52;12.90;99.90
3086;DHT22;52812;48.960;9.108;2023-04-24T13:49:20;13.00;99.90
3086;DHT22;52812;48.960;9.108;2023-04-24T13:51:46;12.90;99.90
3086;DHT22;52812;48.960;9.108;2023-04-24T13:54:12;12.80;99.90
3086;DHT22;52812;48.960;9.108;2023-04-24T13:56:39;12.80;99.90
3086;DHT22;52812;48.960;9.108;2023-04-24T13:59:05;12.90;99.90
3086;DHT22;52812;48.960;9.108;2023-04-24T14:01:31;13.20;99.90
3086;DHT22;52812;48.960;9.108;2023-04-24T14:03:57;13.10;99.90
3086;DHT22;52812;48.960;9.108;2023-04-24T14:06:23;13.20;99.90
3086;DHT22;52812;48.960;9.108;2023-04-24T14:08:49;13.20;99.90
3086;DHT22;52812;48.960;9.108;2023-04-24T14:11:16;13.20;99.90
3086;DHT22;52812;48.960;9.108;2023-04-24T14:13:42;13.20;99.90
3086;DHT22;52812;48.960;9.108;2023-04-24T14:16:09;13.20;99.90
3086;DHT22;52812;48.960;9.108;2023-04-24T14:18:35;12.80;99.90
3086;DHT22;52812;48.960;9.108;2023-04-24T14:21:02;12.80;99.90
3086;DHT22;52812;48.960;9.108;2023-04-24T14:23:28;12.80;99.90
3086;DHT22;52812;48.960;9.108;2023-04-24T14:25:54;13.10;99.90
3086;DHT22;52812;48.960;9.108;2023-04-24T14:28:20;13.30;99.90
3086;DHT22;52812;48.960;9.108;2023-04-24T14:30:46;13.10;99.90
3086;DHT22;52812;48.960;9.108;2023-04-24T14:33:12;13.10;99.90
3086;DHT22;52812;48.960;9.108;2023-04-24T14:35:39;13.00;99.90
3086;DHT22;52812;48.960;9.108;2023-04-24T14:38:05;13.10;99.90
3086;DHT22;52812;48.960;9.108;2023-04-24T14:40:31;13.00;99.90
3086;DHT22;52812;48.960;9.108;2023-04-24T14:42:58;13.10;99.90
3086;DHT22;52812;48.960;9.108;2023-04-24T14:45:24;13.30;99.90
3086;DHT22;52812;48.960;9.108;2023-04-24T14:47:50;13.40;99.90
3086;DHT22;52812;48.960;9.108;2023-04-24T14:50:16;13.70;99.90
3086;DHT22;52812;48.960;9.108;2023-04-24T14:52:42;13.60;99.90
3086;DHT22;52812;48.960;9.108;2023-04-24T14:55:08;13.50;99.90
3086;DHT22;52812;48.960;9.108;2023-04-24T14:57:34;13.50;99.90
3086;DHT22;52812;48.960;9.108;2023-04-24T15:00:01;13.50;99.90
3086;DHT22;52812;48.960;9.108;2023-04-24T15:02:28;13.40;99.90
3086;DHT22;52812;48.960;9.108;2023-04-24T15:04:54;13.40;99.90
3086;DHT22;52812;48.960;9.108;2023-04-24T15:07:21;13.10;99.90
3086;DHT22;52812;48.960;9.108;2023-04-24T15:09:47;13.10;99.90
3086;DHT22;52812;48.960;9.108;2023-04-24T15:12:13;12.90;99.90
3086;DHT22;52812;48.960;9.108;2023-04-24T15:14:38;12.80;99.90
3086;DHT22;52812;48.960;9.108;2023-04-24T15:17:04;12.80;99.90
3086;DHT22;52812;48.960;9.108;2023-04-24T15:19:31;12.80;99.90
3086;DHT22;52812;48.960;9.108;2023-04-24T15:21:56;12.80;99.90
3086;DHT22;52812;48.960;9.108;2023-04-24T15:24:22;12.80;99.90
3086;DHT22;52812;48.960;9.108;2023-04-24T15:26:47;12.80;99.90
3086;DHT22;52812;48.960;9.108;2023-04-24T15:29:13;12.70;99.90
3086;DHT22;52812;48.960;9.108;2023-04-24T15:31:39;12.80;99.90
3086;DHT22;52812;48.960;9.108;2023-04-24T15:34:06;13.00;99.90
3086;DHT22;52812;48.960;9.108;2023-04-24T15:36:31;13.10;99.90
3086;DHT22;52812;48.960;9.108;2023-04-24T15:38:57;13.20;99.90
3086;DHT22;52812;48.960;9.108;2023-04-24T15:41:23;13.10;99.90
3086;DHT22;52812;48.960;9.108;2023-04-24T15:43:49;13.10;99.90
3086;DHT22;52812;48.960;9.108;2023-04-24T15:46:15;13.00;99.90
3086;DHT22;52812;48.960;9.108;2023-04-24T15:48:42;13.00;99.90
3086;DHT22;52812;48.960;9.108;2023-04-24T15:51:07;13.00;99.90
3086;DHT22;52812;48.960;9.108;2023-04-24T15:53:33;12.90;99.90